Aérodrome :
LOGIN :

S'inscrire | Disclaimer

   EN    FR    IT 

 










Légende :    VFR   VFR Marginal   IFR   IFR Intensif   IFR Très Intensif
Visi : 
Plafond : 
>= 8 km
>= 3000ft
5 à 8 km
1000 à 3000 ft
1500m à 5 km
500 à 1000 ft
800 à 1500m
200 à 500 ft
< 800m
< 200 ft
Symboles :   Orages  Brouillard  Fortes neiges  Fortes précipitations  Vent > 20 kt
SIGMETs :   Divers  Orages  Givrage  Turbulence  Onde Orograph.  Cendres Volcan.






- Altitude de l'aérodrome : 33 ft
- Code IATA : PLQ


EYPA - Palanga

DERNIER METAR :
  • 291450Z 33008KT 260V010 CAVOK 14/08 Q1024

METARs EXPIRÉS :
  • 291420Z 33008KT 280V010 CAVOK 14/08 Q1024
  • 291350Z 34010G22KT 290V030 CAVOK 14/07 Q1024
  • 291320Z 34010G22KT 230V020 CAVOK 14/07 Q1024
  • 291250Z 34011G21KT 300V030 CAVOK 15/08 Q1025
  • 291220Z 34010G20KT 290V050 CAVOK 15/07 Q1025

TAF TAF EYPA
Valide du 29 à 12h jusqu'au 30 à 12h UTC


291101Z 2912/3012 34014G24KT 9000 SCT045
BECMG 2917/2918 36004KT NSC
BECMG 3007/3009 02014G24KT SCT040



MET'MAP, la Météo Aéronautique d'un coup d'oeil ! - Copyright ORBIFLY Décembre 2007 - Disclaimer

ORBIFLY MET'MAP TEAM :

Programmation & Développement : Alexandra Zaïnal
Sur une idée originale de : Baudouin d'Aumeries
Assistance à la programmation : Marc-Olivier Méhu
Soutien technique & logistique : Manuel Goepfert

Contact : metmap@orbifly.com




SOURCES & CREDITS :

   NOAA